createdAt,value
2023-09-06T00:01:26.083Z,22.23
2023-09-06T00:03:57.009Z,22.21
2023-09-06T00:06:25.338Z,22.17
2023-09-06T00:08:53.701Z,22.12
2023-09-06T00:11:22.475Z,22.12
2023-09-06T00:13:50.741Z,22.08
2023-09-06T00:16:19.097Z,22.06
2023-09-06T00:18:47.448Z,22.03
2023-09-06T00:21:15.765Z,21.98
2023-09-06T00:23:44.061Z,21.92
2023-09-06T00:26:14.298Z,21.86
2023-09-06T00:28:42.609Z,21.81
2023-09-06T00:31:11.017Z,21.76
2023-09-06T00:33:39.337Z,21.71
2023-09-06T00:36:08.034Z,21.64
2023-09-06T00:38:36.381Z,21.57
2023-09-06T00:41:05.026Z,21.55
2023-09-06T00:43:33.344Z,21.50
2023-09-06T00:46:07.579Z,21.45
2023-09-06T00:48:36.211Z,21.35
2023-09-06T00:51:05.757Z,21.30
2023-09-06T00:53:34.773Z,21.26
2023-09-06T00:56:09.776Z,21.21
2023-09-06T00:58:39.362Z,21.18
2023-09-06T01:01:08.015Z,21.13
2023-09-06T01:03:36.555Z,21.10
2023-09-06T01:06:20.374Z,21.05
2023-09-06T01:09:00.123Z,20.97
2023-09-06T01:11:28.911Z,20.93
2023-09-06T01:14:00.821Z,20.89
2023-09-06T01:16:59.895Z,20.84
2023-09-06T01:19:30.130Z,20.77
2023-09-06T01:22:24.691Z,20.70
2023-09-06T01:24:53.106Z,20.64
2023-09-06T01:27:23.506Z,20.57
2023-09-06T01:29:52.145Z,20.53
2023-09-06T01:32:20.404Z,20.51
2023-09-06T01:34:48.697Z,20.45
2023-09-06T01:37:17.029Z,20.42
2023-09-06T01:39:45.304Z,20.37
2023-09-06T01:42:13.663Z,20.32
2023-09-06T01:44:42.092Z,20.24
2023-09-06T01:47:10.497Z,20.19
2023-09-06T01:49:38.808Z,20.16
2023-09-06T01:52:07.400Z,20.09
2023-09-06T01:54:35.691Z,20.04
2023-09-06T01:57:12.981Z,19.98
2023-09-06T01:59:41.401Z,19.92
2023-09-06T02:02:10.262Z,19.88
2023-09-06T02:04:39.434Z,19.83
2023-09-06T02:07:07.828Z,19.77
2023-09-06T02:09:38.410Z,19.74
2023-09-06T02:12:07.600Z,19.72
2023-09-06T02:14:35.911Z,19.67
2023-09-06T02:17:04.922Z,19.62
2023-09-06T02:19:34.641Z,19.55
2023-09-06T02:22:02.945Z,19.50
2023-09-06T02:24:31.270Z,19.48
2023-09-06T02:27:24.440Z,19.43
2023-09-06T02:29:54.666Z,19.35
2023-09-06T02:32:23.079Z,19.31
2023-09-06T02:34:51.465Z,19.26
2023-09-06T02:37:19.784Z,19.23
2023-09-06T02:39:49.182Z,19.17
2023-09-06T02:42:17.852Z,19.13
2023-09-06T02:44:46.549Z,19.10
2023-09-06T02:47:18.298Z,19.08
2023-09-06T02:49:49.024Z,19.04
2023-09-06T02:52:29.498Z,18.96
2023-09-06T02:55:06.067Z,18.92
2023-09-06T02:57:36.135Z,18.89
2023-09-06T03:00:18.666Z,18.85
2023-09-06T03:02:48.950Z,18.79
2023-09-06T03:05:19.303Z,18.76
2023-09-06T03:07:49.479Z,18.74
2023-09-06T03:10:21.137Z,18.70
2023-09-06T03:12:57.281Z,18.67
2023-09-06T03:15:29.610Z,18.62
2023-09-06T03:18:16.921Z,18.59
2023-09-06T03:20:45.321Z,18.57
2023-09-06T03:23:28.199Z,18.53
2023-09-06T03:25:59.289Z,18.50
2023-09-06T03:28:34.910Z,18.48
2023-09-06T03:31:03.993Z,18.45
2023-09-06T03:33:32.542Z,18.42
2023-09-06T03:36:01.687Z,18.40
2023-09-06T03:38:31.025Z,18.37
2023-09-06T03:41:03.835Z,18.35
2023-09-06T03:43:33.326Z,18.39
2023-09-06T03:46:08.733Z,18.39
2023-09-06T03:48:37.953Z,18.38
2023-09-06T03:51:06.866Z,18.34
2023-09-06T03:53:38.551Z,18.33
2023-09-06T03:56:07.726Z,18.34
2023-09-06T03:58:42.148Z,18.32
2023-09-06T04:01:12.063Z,18.32
2023-09-06T04:03:41.740Z,18.31
2023-09-06T04:06:12.063Z,18.29
2023-09-06T04:08:40.985Z,18.34
2023-09-06T04:11:12.566Z,18.33
2023-09-06T04:13:44.552Z,18.34
2023-09-06T04:16:15.537Z,18.34
2023-09-06T04:18:45.285Z,18.35
2023-09-06T04:21:13.664Z,18.32
2023-09-06T04:23:45.854Z,18.39
2023-09-06T04:26:17.432Z,18.38
2023-09-06T04:28:45.908Z,18.36
2023-09-06T04:31:19.006Z,18.36
2023-09-06T04:33:48.986Z,18.39
2023-09-06T04:36:21.461Z,18.40
2023-09-06T04:38:54.177Z,18.38
2023-09-06T04:41:23.184Z,18.34
2023-09-06T04:43:56.428Z,18.33
2023-09-06T04:46:26.729Z,18.34
2023-09-06T04:48:56.413Z,18.34
2023-09-06T04:51:26.071Z,18.30
2023-09-06T04:53:55.497Z,18.34
2023-09-06T04:56:32.196Z,18.32
2023-09-06T04:59:01.695Z,18.34
2023-09-06T05:01:32.491Z,18.34
2023-09-06T05:04:01.170Z,18.32
2023-09-06T05:06:31.161Z,18.34
2023-09-06T05:09:02.684Z,18.33
2023-09-06T05:11:30.988Z,18.33
2023-09-06T05:13:59.271Z,18.31
2023-09-06T05:16:30.266Z,18.34
2023-09-06T05:18:58.678Z,18.32
2023-09-06T05:21:32.075Z,18.33
2023-09-06T05:24:00.863Z,18.34
2023-09-06T05:26:29.905Z,18.33
2023-09-06T05:28:59.012Z,18.37
2023-09-06T05:31:27.647Z,18.40
2023-09-06T05:33:56.348Z,18.45
2023-09-06T05:36:25.242Z,18.49
2023-09-06T05:38:54.390Z,18.49
2023-09-06T05:41:25.420Z,18.55
2023-09-06T05:43:53.794Z,18.58
2023-09-06T05:46:33.043Z,18.62
2023-09-06T05:49:11.106Z,18.70
2023-09-06T05:51:43.392Z,18.77
2023-09-06T05:54:12.772Z,18.80
2023-09-06T05:57:07.110Z,18.87
2023-09-06T05:59:37.828Z,18.91
2023-09-06T06:02:09.225Z,18.99
2023-09-06T06:04:38.372Z,19.12
2023-09-06T06:07:07.523Z,19.19
2023-09-06T06:09:36.822Z,19.30
2023-09-06T06:12:05.308Z,19.40
2023-09-06T06:14:33.708Z,19.51
2023-09-06T06:17:02.255Z,19.58
2023-09-06T06:19:30.556Z,19.70
2023-09-06T06:21:59.389Z,19.81
2023-09-06T06:24:47.138Z,19.94
2023-09-06T06:27:15.643Z,20.05
2023-09-06T06:29:43.981Z,20.16
2023-09-06T06:32:12.567Z,20.24
2023-09-06T06:34:40.938Z,20.39
2023-09-06T06:37:09.189Z,20.49
2023-09-06T06:39:41.405Z,20.58
2023-09-06T06:42:16.702Z,20.72
2023-09-06T06:45:00.558Z,20.80
2023-09-06T06:47:29.157Z,20.89
2023-09-06T06:49:58.792Z,20.99
2023-09-06T06:52:31.968Z,21.07
2023-09-06T06:55:00.629Z,21.17
2023-09-06T06:57:28.924Z,21.26
2023-09-06T06:59:59.466Z,21.31
2023-09-06T07:02:27.852Z,21.43
2023-09-06T07:04:59.005Z,21.52
2023-09-06T07:07:27.272Z,21.58
2023-09-06T07:09:55.515Z,21.62
2023-09-06T07:12:23.963Z,21.73
2023-09-06T07:14:53.090Z,21.82
2023-09-06T07:17:26.736Z,21.92
2023-09-06T07:19:55.290Z,22.00
2023-09-06T07:22:23.578Z,22.07
2023-09-06T07:24:53.075Z,22.16
2023-09-06T07:27:28.524Z,22.18
2023-09-06T07:29:56.769Z,22.27
2023-09-06T07:32:28.045Z,22.32
2023-09-06T07:34:56.344Z,22.40
2023-09-06T07:37:24.795Z,22.46
2023-09-06T07:39:54.240Z,22.53
2023-09-06T07:42:46.981Z,22.66
2023-09-06T07:45:15.477Z,22.72
2023-09-06T07:47:44.400Z,22.78
2023-09-06T07:50:13.084Z,22.86
2023-09-06T07:52:43.532Z,22.92
2023-09-06T07:55:13.663Z,23.00
2023-09-06T07:57:41.933Z,23.11
2023-09-06T08:00:37.290Z,23.22
2023-09-06T08:03:06.158Z,23.25
2023-09-06T08:05:36.319Z,23.36
2023-09-06T08:08:10.357Z,23.40
2023-09-06T08:10:39.420Z,23.48
2023-09-06T08:13:08.137Z,23.55
2023-09-06T08:15:38.395Z,23.59
2023-09-06T08:18:07.053Z,23.68
2023-09-06T08:20:35.486Z,23.77
2023-09-06T08:23:05.216Z,23.82
2023-09-06T08:25:35.169Z,23.94
2023-09-06T08:28:03.898Z,24.00
2023-09-06T08:30:32.247Z,24.10
2023-09-06T08:33:00.705Z,24.16
2023-09-06T08:35:29.182Z,24.25
2023-09-06T08:37:57.454Z,24.28
2023-09-06T08:40:25.898Z,24.35
2023-09-06T08:42:54.433Z,24.43
2023-09-06T08:45:24.100Z,24.56
2023-09-06T08:47:52.523Z,24.62
2023-09-06T08:50:21.101Z,24.70
2023-09-06T08:52:55.160Z,24.79
2023-09-06T08:55:24.701Z,24.85
2023-09-06T08:57:53.336Z,24.93
2023-09-06T09:00:24.765Z,25.00
2023-09-06T09:02:53.498Z,25.06
2023-09-06T09:05:23.447Z,25.12
2023-09-06T09:08:00.434Z,25.15
2023-09-06T09:10:33.353Z,25.20
2023-09-06T09:13:02.751Z,25.25
2023-09-06T09:15:35.160Z,25.26
2023-09-06T09:18:32.432Z,25.41
2023-09-06T09:21:03.263Z,25.43
2023-09-06T09:23:56.679Z,25.51
2023-09-06T09:26:25.070Z,25.55
2023-09-06T09:28:53.400Z,25.63
2023-09-06T09:31:22.223Z,25.68
2023-09-06T09:33:56.909Z,25.70
2023-09-06T09:36:29.631Z,25.78
2023-09-06T09:38:58.048Z,25.84
2023-09-06T09:41:26.303Z,25.90
2023-09-06T09:44:16.537Z,25.94
2023-09-06T09:46:45.719Z,26.00
2023-09-06T09:49:15.103Z,26.10
2023-09-06T09:51:43.580Z,26.14
2023-09-06T09:54:14.424Z,26.21
2023-09-06T09:56:43.006Z,26.33
2023-09-06T09:59:13.474Z,26.34
2023-09-06T10:01:42.147Z,26.43
2023-09-06T10:04:14.844Z,26.47
2023-09-06T10:06:44.398Z,26.91
2023-09-06T10:09:13.781Z,27.28
2023-09-06T10:11:43.171Z,27.38
2023-09-06T10:14:26.523Z,27.36
2023-09-06T10:16:55.240Z,27.30
2023-09-06T10:19:23.741Z,27.49
2023-09-06T10:21:54.221Z,27.62
2023-09-06T10:24:24.200Z,27.76
2023-09-06T10:26:55.192Z,27.84
2023-09-06T10:29:32.120Z,28.04
2023-09-06T10:32:06.899Z,28.13
2023-09-06T10:35:28.086Z,28.21
2023-09-06T10:38:06.788Z,28.20
2023-09-06T10:40:50.586Z,28.45
2023-09-06T10:43:54.137Z,28.97
2023-09-06T10:46:30.623Z,29.18
2023-09-06T10:49:22.522Z,29.69
2023-09-06T10:52:09.599Z,30.06
2023-09-06T10:54:45.069Z,31.10
2023-09-06T10:57:15.841Z,32.31
2023-09-06T10:59:58.677Z,33.30
2023-09-06T11:02:28.215Z,34.89
2023-09-06T11:05:11.301Z,35.96
2023-09-06T11:10:24.072Z,37.59
2023-09-06T11:12:55.800Z,38.71
2023-09-06T11:15:27.053Z,39.09
2023-09-06T11:18:01.270Z,39.57
2023-09-06T11:20:31.426Z,40.46
2023-09-06T11:23:02.293Z,41.01
2023-09-06T11:25:35.461Z,41.72
2023-09-06T11:28:20.535Z,42.06
2023-09-06T11:30:49.988Z,42.68
2023-09-06T11:33:19.335Z,43.04
2023-09-06T11:36:14.570Z,43.84
2023-09-06T11:38:44.585Z,43.88
2023-09-06T11:41:14.215Z,43.85
2023-09-06T11:43:47.634Z,45.06
2023-09-06T11:46:18.450Z,44.81
2023-09-06T11:48:48.768Z,45.25
2023-09-06T11:51:23.353Z,45.84
2023-09-06T11:54:01.818Z,45.68
2023-09-06T11:56:32.138Z,46.84
2023-09-06T11:59:01.204Z,46.83
2023-09-06T12:01:30.126Z,46.99
2023-09-06T12:04:00.450Z,47.81
2023-09-06T12:06:30.220Z,47.84
2023-09-06T12:08:58.742Z,48.15
2023-09-06T12:11:28.500Z,48.00
2023-09-06T12:13:58.190Z,47.74
2023-09-06T12:16:26.758Z,48.43
2023-09-06T12:18:55.835Z,48.67
2023-09-06T12:21:24.046Z,49.06
2023-09-06T12:23:52.879Z,49.17
2023-09-06T12:26:21.894Z,48.88
2023-09-06T12:28:51.316Z,48.64
2023-09-06T12:31:19.975Z,49.58
2023-09-06T12:33:50.885Z,50.37
2023-09-06T12:36:19.802Z,50.49
2023-09-06T12:38:48.689Z,48.92
2023-09-06T12:41:16.961Z,50.41
2023-09-06T12:43:45.404Z,50.83
2023-09-06T12:46:14.179Z,49.33
2023-09-06T12:48:44.063Z,49.78
2023-09-06T12:51:12.921Z,49.84
2023-09-06T12:53:41.368Z,50.37
2023-09-06T12:56:14.308Z,50.28
2023-09-06T12:58:44.426Z,49.84
2023-09-06T13:01:13.889Z,51.12
2023-09-06T13:03:45.351Z,50.45
2023-09-06T13:06:13.902Z,50.27
2023-09-06T13:08:43.338Z,49.46
2023-09-06T13:11:13.971Z,49.97
2023-09-06T13:13:42.759Z,50.94
2023-09-06T13:16:13.137Z,51.10
2023-09-06T13:18:43.309Z,51.79
2023-09-06T13:21:13.132Z,52.23
2023-09-06T13:23:41.386Z,52.07
2023-09-06T13:26:11.583Z,52.09
2023-09-06T13:28:40.543Z,52.34
2023-09-06T13:31:09.031Z,52.73
2023-09-06T13:33:44.399Z,52.25
2023-09-06T13:36:15.701Z,53.10
2023-09-06T13:38:49.091Z,53.35
2023-09-06T13:41:17.496Z,52.93
2023-09-06T13:44:11.061Z,53.17
2023-09-06T13:46:39.069Z,53.25
2023-09-06T13:49:10.575Z,52.56
2023-09-06T13:51:50.725Z,53.20
2023-09-06T13:54:18.772Z,52.73
2023-09-06T13:56:50.869Z,52.07
2023-09-06T13:59:43.836Z,52.49
2023-09-06T14:02:13.037Z,53.19
2023-09-06T14:04:45.034Z,52.81
2023-09-06T14:07:26.039Z,53.13
2023-09-06T14:09:55.314Z,53.66
2023-09-06T14:12:32.363Z,53.49
2023-09-06T14:15:07.671Z,53.38
2023-09-06T14:17:39.824Z,52.60
2023-09-06T14:20:10.677Z,52.47
2023-09-06T14:22:41.919Z,53.09
2023-09-06T14:25:13.159Z,53.00
2023-09-06T14:27:41.071Z,52.02
2023-09-06T14:30:12.049Z,51.85
2023-09-06T14:32:44.188Z,50.85
2023-09-06T14:35:12.303Z,52.57
2023-09-06T14:37:42.505Z,52.02
2023-09-06T14:40:13.788Z,51.41
2023-09-06T14:42:45.853Z,51.22
2023-09-06T14:45:16.975Z,52.06
2023-09-06T14:47:45.081Z,51.29
2023-09-06T14:50:13.537Z,52.16
2023-09-06T14:52:41.850Z,52.40
2023-09-06T14:55:10.178Z,52.44
2023-09-06T14:57:40.760Z,52.45
2023-09-06T15:00:10.867Z,52.21
2023-09-06T15:02:39.433Z,52.33
2023-09-06T15:05:14.493Z,52.44
2023-09-06T15:07:45.971Z,52.24
2023-09-06T15:10:16.855Z,51.57
2023-09-06T15:12:46.947Z,51.31
2023-09-06T15:15:17.171Z,52.03
2023-09-06T15:17:45.234Z,52.12
2023-09-06T15:20:38.809Z,52.65
2023-09-06T15:23:07.830Z,52.49
2023-09-06T15:25:40.560Z,51.61
2023-09-06T15:28:10.922Z,51.71
2023-09-06T15:30:40.335Z,52.15
2023-09-06T15:33:08.569Z,51.02
2023-09-06T15:35:38.776Z,52.34
2023-09-06T15:38:08.710Z,51.80
2023-09-06T15:40:41.102Z,52.52
2023-09-06T15:43:10.174Z,52.33
2023-09-06T15:45:39.494Z,50.96
2023-09-06T15:48:07.760Z,51.01
2023-09-06T15:50:36.037Z,51.04
2023-09-06T15:53:11.346Z,51.93
2023-09-06T15:55:44.967Z,51.91
2023-09-06T15:58:29.356Z,51.41
2023-09-06T16:01:25.878Z,49.84
2023-09-06T16:03:53.974Z,49.20
2023-09-06T16:06:27.086Z,50.83
2023-09-06T16:09:35.266Z,50.30
2023-09-06T16:12:33.503Z,50.12
2023-09-06T16:15:02.799Z,50.37
2023-09-06T16:17:31.253Z,49.73
2023-09-06T16:19:59.670Z,50.44
2023-09-06T16:22:52.734Z,50.67
2023-09-06T16:25:38.185Z,50.59
2023-09-06T16:28:06.320Z,50.50
2023-09-06T16:31:01.149Z,50.46
2023-09-06T16:33:36.477Z,50.16
2023-09-06T16:36:09.003Z,49.76
2023-09-06T16:38:37.233Z,49.81
2023-09-06T16:41:11.483Z,49.33
2023-09-06T16:43:44.517Z,49.23
2023-09-06T16:46:15.545Z,49.17
2023-09-06T16:48:44.696Z,49.12
2023-09-06T16:51:15.492Z,48.27
2023-09-06T16:53:56.579Z,48.58
2023-09-06T16:56:27.960Z,48.45
2023-09-06T16:58:57.999Z,48.19
2023-09-06T17:01:26.653Z,47.92
2023-09-06T17:03:55.048Z,47.66
2023-09-06T17:06:48.435Z,47.39
2023-09-06T17:09:16.763Z,47.14
2023-09-06T17:11:45.517Z,46.88
2023-09-06T17:14:13.868Z,46.34
2023-09-06T17:16:42.431Z,46.12
2023-09-06T17:19:11.398Z,45.90
2023-09-06T17:21:41.154Z,45.60
2023-09-06T17:24:15.436Z,45.23
2023-09-06T17:26:55.086Z,44.79
2023-09-06T17:29:23.141Z,43.25
2023-09-06T17:31:52.323Z,42.91
2023-09-06T17:34:20.686Z,42.58
2023-09-06T17:37:03.837Z,42.46
2023-09-06T17:39:32.285Z,42.20
2023-09-06T17:42:01.893Z,41.51
2023-09-06T17:44:32.657Z,40.75
2023-09-06T17:47:15.396Z,39.94
2023-09-06T17:49:43.734Z,39.38
2023-09-06T17:52:12.142Z,38.79
2023-09-06T17:54:49.441Z,38.23
2023-09-06T17:57:43.015Z,37.65
2023-09-06T18:00:16.794Z,37.19
2023-09-06T18:02:47.901Z,36.68
2023-09-06T18:05:18.618Z,36.18
2023-09-06T18:08:15.457Z,35.69
2023-09-06T18:10:45.180Z,35.22
2023-09-06T18:13:15.194Z,34.75
2023-09-06T18:15:50.139Z,34.33
2023-09-06T18:18:44.451Z,34.02
2023-09-06T18:21:15.591Z,33.62
2023-09-06T18:23:45.789Z,33.30
2023-09-06T18:26:14.691Z,33.04
2023-09-06T18:28:43.303Z,32.78
2023-09-06T18:31:11.631Z,32.44
2023-09-06T18:34:07.299Z,32.20
2023-09-06T18:36:36.749Z,31.73
2023-09-06T18:39:09.912Z,31.52
2023-09-06T18:41:38.188Z,31.24
2023-09-06T18:44:32.561Z,30.97
2023-09-06T18:47:01.058Z,30.68
2023-09-06T18:49:33.685Z,30.50
2023-09-06T18:52:02.067Z,30.29
2023-09-06T18:54:30.335Z,29.75
2023-09-06T18:56:58.586Z,29.66
2023-09-06T18:59:28.532Z,29.62
2023-09-06T19:01:56.934Z,28.98
2023-09-06T19:04:25.301Z,29.08
2023-09-06T19:06:54.305Z,28.76
2023-09-06T19:09:22.584Z,28.85
2023-09-06T19:11:50.909Z,28.72
2023-09-06T19:14:20.116Z,28.60
2023-09-06T19:17:00.853Z,28.41
2023-09-06T19:19:33.730Z,28.29
2023-09-06T19:22:02.023Z,28.15
2023-09-06T19:24:30.273Z,27.98
2023-09-06T19:27:04.798Z,27.85
2023-09-06T19:29:58.245Z,27.71
2023-09-06T19:32:26.664Z,27.47
2023-09-06T19:34:55.989Z,27.35
2023-09-06T19:37:24.258Z,27.23
2023-09-06T19:39:53.135Z,27.09
2023-09-06T19:42:22.510Z,26.96
2023-09-06T19:45:15.710Z,26.84
2023-09-06T19:47:52.057Z,26.72
2023-09-06T19:50:20.664Z,26.64
2023-09-06T19:52:49.086Z,26.53
2023-09-06T19:55:30.604Z,26.43
2023-09-06T19:57:59.006Z,26.33
2023-09-06T20:00:27.702Z,26.24
2023-09-06T20:03:02.396Z,26.13
2023-09-06T20:05:30.972Z,26.06
2023-09-06T20:08:06.140Z,25.94
2023-09-06T20:10:40.794Z,25.86
2023-09-06T20:13:09.033Z,25.76
2023-09-06T20:15:37.799Z,25.68
2023-09-06T20:18:07.806Z,25.56
2023-09-06T20:20:40.616Z,25.49
2023-09-06T20:23:11.101Z,25.40
2023-09-06T20:25:39.527Z,25.34
2023-09-06T20:28:07.801Z,25.24
2023-09-06T20:30:42.287Z,25.14
2023-09-06T20:33:11.630Z,25.06
2023-09-06T20:35:42.945Z,24.99
2023-09-06T20:38:12.798Z,24.90
2023-09-06T20:41:42.296Z,24.83
2023-09-06T20:44:10.833Z,24.73
2023-09-06T20:47:07.061Z,24.68
2023-09-06T20:49:35.633Z,24.59
2023-09-06T20:52:27.179Z,24.52
2023-09-06T20:54:56.451Z,24.44
2023-09-06T20:57:24.983Z,24.39
2023-09-06T20:59:53.230Z,24.33
2023-09-06T21:02:22.002Z,24.28
2023-09-06T21:04:50.741Z,24.23
2023-09-06T21:07:19.272Z,24.16
2023-09-06T21:09:47.642Z,24.12
2023-09-06T21:12:15.905Z,24.05
2023-09-06T21:14:44.500Z,24.00
2023-09-06T21:17:12.830Z,23.94
2023-09-06T21:19:41.139Z,23.87
2023-09-06T21:22:09.573Z,23.79
2023-09-06T21:24:37.606Z,23.72
2023-09-06T21:27:06.186Z,23.67
2023-09-06T21:29:34.438Z,23.62
2023-09-06T21:32:04.411Z,23.61
2023-09-06T21:34:32.849Z,23.54
2023-09-06T21:37:01.212Z,23.50
2023-09-06T21:39:29.761Z,23.49
2023-09-06T21:41:58.149Z,23.41
2023-09-06T21:44:27.456Z,23.38
2023-09-06T21:46:55.908Z,23.37
2023-09-06T21:49:28.342Z,23.28
2023-09-06T21:51:56.597Z,23.25
2023-09-06T21:54:49.810Z,23.19
2023-09-06T21:57:18.259Z,23.15
2023-09-06T21:59:46.542Z,23.09
2023-09-06T22:02:14.887Z,23.06
2023-09-06T22:05:01.879Z,23.00
2023-09-06T22:07:48.987Z,22.92
2023-09-06T22:10:46.161Z,22.88
2023-09-06T22:13:33.081Z,22.83
2023-09-06T22:16:14.915Z,22.79
2023-09-06T22:19:07.824Z,22.72
2023-09-06T22:21:42.582Z,22.64
2023-09-06T22:24:11.675Z,22.57
2023-09-06T22:26:40.182Z,22.54
2023-09-06T22:29:08.564Z,22.48
2023-09-06T22:31:37.838Z,22.44
2023-09-06T22:34:07.707Z,22.39
2023-09-06T22:36:36.018Z,22.32
2023-09-06T22:39:04.498Z,22.28
2023-09-06T22:41:33.345Z,22.25
2023-09-06T22:44:01.728Z,22.18
2023-09-06T22:46:30.114Z,22.12
2023-09-06T22:49:02.688Z,22.10
2023-09-06T22:51:31.387Z,22.08
2023-09-06T22:53:59.769Z,22.08
2023-09-06T22:56:28.072Z,22.03
2023-09-06T22:58:56.331Z,22.01
2023-09-06T23:01:24.739Z,21.97
2023-09-06T23:03:53.191Z,21.91
2023-09-06T23:06:26.781Z,21.89
2023-09-06T23:08:59.281Z,21.86
2023-09-06T23:11:28.736Z,21.79
2023-09-06T23:13:57.423Z,21.73
2023-09-06T23:16:42.469Z,21.70
2023-09-06T23:19:14.268Z,21.65
2023-09-06T23:21:44.160Z,21.63
2023-09-06T23:24:13.897Z,21.59
2023-09-06T23:27:07.933Z,21.60
2023-09-06T23:29:40.481Z,21.58
2023-09-06T23:32:10.944Z,21.58
2023-09-06T23:34:43.708Z,21.55
2023-09-06T23:37:35.645Z,21.52
2023-09-06T23:40:21.296Z,21.47
2023-09-06T23:42:57.948Z,21.43
2023-09-06T23:45:27.339Z,21.45
2023-09-06T23:47:58.090Z,21.38
2023-09-06T23:50:27.933Z,21.39
2023-09-06T23:52:57.154Z,21.32
2023-09-06T23:55:26.768Z,21.32
2023-09-06T23:57:55.088Z,21.26
